Terminal Aerodrome Forecast
Issued by NWS North Platte, NE

Home | Current Version | Previous Version | Text Only | Print | Product List | Glossary On
Versions: 1 2 3 4 5 6 7 8 9 10 11 12 13 14
000
FTUS43 KLBF 011738
TAFVTN
TAF
KVTN 011738Z 0118/0218 16020G27KT P6SM -TSRA SCT050 BKN100CB
     FM011900 17016G22KT P6SM VCSH SCT050 BKN100
      TEMPO 0119/0120 -TSRA BKN050CB
     FM012100 20015G25KT P6SM BKN100
     FM020400 VRB06KT P6SM SKC
     FM021600 33010G17KT P6SM SKC=

USA.gov is the U.S. government's official web portal to all federal, state and local government web resources and services.